sensor_id;sensor_type;location;lat;lon;timestamp;temperature;humidity
33827;DHT22;20128;45.582;5.298;2023-08-31T00:01:35;18.90;65.60
33827;DHT22;20128;45.582;5.298;2023-08-31T00:04:01;18.70;66.30
33827;DHT22;20128;45.582;5.298;2023-08-31T00:06:27;18.70;66.50
33827;DHT22;20128;45.582;5.298;2023-08-31T00:08:52;18.80;66.60
33827;DHT22;20128;45.582;5.298;2023-08-31T00:11:18;18.80;66.30
33827;DHT22;20128;45.582;5.298;2023-08-31T00:13:45;18.90;66.30
33827;DHT22;20128;45.582;5.298;2023-08-31T00:16:11;19.10;66.20
33827;DHT22;20128;45.582;5.298;2023-08-31T00:18:37;19.10;65.80
33827;DHT22;20128;45.582;5.298;2023-08-31T00:21:04;19.20;65.60
33827;DHT22;20128;45.582;5.298;2023-08-31T00:23:30;19.30;65.50
33827;DHT22;20128;45.582;5.298;2023-08-31T00:25:55;19.20;65.40
33827;DHT22;20128;45.582;5.298;2023-08-31T00:28:22;19.00;65.90
33827;DHT22;20128;45.582;5.298;2023-08-31T00:30:48;18.90;66.40
33827;DHT22;20128;45.582;5.298;2023-08-31T00:33:14;19.00;66.30
33827;DHT22;20128;45.582;5.298;2023-08-31T00:35:41;19.10;66.20
33827;DHT22;20128;45.582;5.298;2023-08-31T00:38:11;19.20;65.90
33827;DHT22;20128;45.582;5.298;2023-08-31T00:40:41;19.30;65.80
33827;DHT22;20128;45.582;5.298;2023-08-31T00:43:09;19.30;65.60
33827;DHT22;20128;45.582;5.298;2023-08-31T00:45:36;19.40;65.60
33827;DHT22;20128;45.582;5.298;2023-08-31T00:48:04;19.40;65.40
33827;DHT22;20128;45.582;5.298;2023-08-31T00:50:30;19.50;65.40
33827;DHT22;20128;45.582;5.298;2023-08-31T00:52:56;19.50;65.60
33827;DHT22;20128;45.582;5.298;2023-08-31T00:55:22;19.50;65.80
33827;DHT22;20128;45.582;5.298;2023-08-31T00:57:48;19.50;65.80
33827;DHT22;20128;45.582;5.298;2023-08-31T01:00:14;19.50;65.80
33827;DHT22;20128;45.582;5.298;2023-08-31T01:08:56;19.20;66.40
33827;DHT22;20128;45.582;5.298;2023-08-31T01:11:34;19.10;66.30
33827;DHT22;20128;45.582;5.298;2023-08-31T01:14:17;19.00;66.50
33827;DHT22;20128;45.582;5.298;2023-08-31T01:16:47;19.10;66.50
33827;DHT22;20128;45.582;5.298;2023-08-31T01:22:11;19.20;66.20
33827;DHT22;20128;45.582;5.298;2023-08-31T01:24:37;19.30;66.10
33827;DHT22;20128;45.582;5.298;2023-08-31T01:27:04;19.30;66.20
33827;DHT22;20128;45.582;5.298;2023-08-31T01:29:30;19.30;66.20
33827;DHT22;20128;45.582;5.298;2023-08-31T01:31:56;19.30;66.30
33827;DHT22;20128;45.582;5.298;2023-08-31T01:34:21;19.30;66.50
33827;DHT22;20128;45.582;5.298;2023-08-31T01:36:53;19.30;66.70
33827;DHT22;20128;45.582;5.298;2023-08-31T01:39:35;19.30;66.60
33827;DHT22;20128;45.582;5.298;2023-08-31T01:42:05;19.20;66.90
33827;DHT22;20128;45.582;5.298;2023-08-31T01:44:34;19.00;67.20
33827;DHT22;20128;45.582;5.298;2023-08-31T01:47:05;18.90;67.50
33827;DHT22;20128;45.582;5.298;2023-08-31T01:49:40;18.80;67.60
33827;DHT22;20128;45.582;5.298;2023-08-31T01:52:06;18.70;67.50
33827;DHT22;20128;45.582;5.298;2023-08-31T01:54:33;18.60;67.70
33827;DHT22;20128;45.582;5.298;2023-08-31T01:56:59;18.40;68.40
33827;DHT22;20128;45.582;5.298;2023-08-31T01:59:24;18.20;69.20
33827;DHT22;20128;45.582;5.298;2023-08-31T02:01:50;18.10;69.80
33827;DHT22;20128;45.582;5.298;2023-08-31T02:04:16;18.10;70.20
33827;DHT22;20128;45.582;5.298;2023-08-31T02:06:42;18.30;69.70
33827;DHT22;20128;45.582;5.298;2023-08-31T02:09:08;18.30;69.60
33827;DHT22;20128;45.582;5.298;2023-08-31T02:11:33;18.30;69.70
33827;DHT22;20128;45.582;5.298;2023-08-31T02:14:06;18.40;69.60
33827;DHT22;20128;45.582;5.298;2023-08-31T02:16:33;18.50;69.50
33827;DHT22;20128;45.582;5.298;2023-08-31T02:18:59;18.50;69.10
33827;DHT22;20128;45.582;5.298;2023-08-31T02:21:24;18.60;69.10
33827;DHT22;20128;45.582;5.298;2023-08-31T02:23:50;18.60;69.00
33827;DHT22;20128;45.582;5.298;2023-08-31T02:26:16;18.60;69.10
33827;DHT22;20128;45.582;5.298;2023-08-31T02:28:41;18.70;69.10
33827;DHT22;20128;45.582;5.298;2023-08-31T02:31:07;18.80;69.10
33827;DHT22;20128;45.582;5.298;2023-08-31T02:33:33;18.80;69.00
33827;DHT22;20128;45.582;5.298;2023-08-31T02:35:58;18.70;69.80
33827;DHT22;20128;45.582;5.298;2023-08-31T02:38:24;18.50;69.40
33827;DHT22;20128;45.582;5.298;2023-08-31T02:40:49;18.40;69.90
33827;DHT22;20128;45.582;5.298;2023-08-31T02:43:15;18.30;70.20
33827;DHT22;20128;45.582;5.298;2023-08-31T02:45:41;18.30;70.40
33827;DHT22;20128;45.582;5.298;2023-08-31T02:48:07;18.40;70.40
33827;DHT22;20128;45.582;5.298;2023-08-31T02:50:34;18.50;70.30
33827;DHT22;20128;45.582;5.298;2023-08-31T02:53:00;18.50;70.20
33827;DHT22;20128;45.582;5.298;2023-08-31T02:55:26;18.60;70.20
33827;DHT22;20128;45.582;5.298;2023-08-31T02:57:52;18.60;70.00
33827;DHT22;20128;45.582;5.298;2023-08-31T03:00:17;18.60;70.00
33827;DHT22;20128;45.582;5.298;2023-08-31T03:02:47;18.60;70.00
33827;DHT22;20128;45.582;5.298;2023-08-31T03:05:13;18.60;70.30
33827;DHT22;20128;45.582;5.298;2023-08-31T03:07:39;18.50;70.30
33827;DHT22;20128;45.582;5.298;2023-08-31T03:10:05;18.50;70.50
33827;DHT22;20128;45.582;5.298;2023-08-31T03:12:30;18.40;70.70
33827;DHT22;20128;45.582;5.298;2023-08-31T03:14:56;18.40;70.80
33827;DHT22;20128;45.582;5.298;2023-08-31T03:17:22;18.30;70.90
33827;DHT22;20128;45.582;5.298;2023-08-31T03:19:47;18.30;71.00
33827;DHT22;20128;45.582;5.298;2023-08-31T03:22:13;18.30;70.90
33827;DHT22;20128;45.582;5.298;2023-08-31T03:24:38;18.40;71.00
33827;DHT22;20128;45.582;5.298;2023-08-31T03:27:04;18.40;71.00
33827;DHT22;20128;45.582;5.298;2023-08-31T03:29:30;18.40;70.80
33827;DHT22;20128;45.582;5.298;2023-08-31T03:31:57;18.50;70.70
33827;DHT22;20128;45.582;5.298;2023-08-31T03:34:23;18.50;70.60
33827;DHT22;20128;45.582;5.298;2023-08-31T03:36:48;18.40;70.60
33827;DHT22;20128;45.582;5.298;2023-08-31T03:39:15;18.40;71.00
33827;DHT22;20128;45.582;5.298;2023-08-31T03:41:41;18.30;71.10
33827;DHT22;20128;45.582;5.298;2023-08-31T03:44:07;18.20;71.40
33827;DHT22;20128;45.582;5.298;2023-08-31T03:46:32;18.10;71.90
33827;DHT22;20128;45.582;5.298;2023-08-31T03:48:58;18.10;72.00
33827;DHT22;20128;45.582;5.298;2023-08-31T03:51:23;18.20;72.00
33827;DHT22;20128;45.582;5.298;2023-08-31T03:53:49;18.10;71.90
33827;DHT22;20128;45.582;5.298;2023-08-31T03:56:14;18.10;72.00
33827;DHT22;20128;45.582;5.298;2023-08-31T03:58:40;18.00;72.10
33827;DHT22;20128;45.582;5.298;2023-08-31T04:01:06;18.00;72.10
33827;DHT22;20128;45.582;5.298;2023-08-31T04:03:31;18.00;72.20
33827;DHT22;20128;45.582;5.298;2023-08-31T04:05:57;17.80;72.50
33827;DHT22;20128;45.582;5.298;2023-08-31T04:08:23;17.80;72.60
33827;DHT22;20128;45.582;5.298;2023-08-31T04:10:48;17.90;72.60
33827;DHT22;20128;45.582;5.298;2023-08-31T04:13:14;17.90;72.50
33827;DHT22;20128;45.582;5.298;2023-08-31T04:15:39;18.00;72.40
33827;DHT22;20128;45.582;5.298;2023-08-31T04:18:05;17.90;72.50
33827;DHT22;20128;45.582;5.298;2023-08-31T04:20:33;17.90;72.60
33827;DHT22;20128;45.582;5.298;2023-08-31T04:22:58;17.90;72.50
33827;DHT22;20128;45.582;5.298;2023-08-31T04:25:24;17.90;72.40
33827;DHT22;20128;45.582;5.298;2023-08-31T04:27:50;17.90;72.30
33827;DHT22;20128;45.582;5.298;2023-08-31T04:30:15;18.00;72.50
33827;DHT22;20128;45.582;5.298;2023-08-31T04:32:41;18.00;72.50
33827;DHT22;20128;45.582;5.298;2023-08-31T04:35:07;18.10;72.50
33827;DHT22;20128;45.582;5.298;2023-08-31T04:37:33;18.10;72.30
33827;DHT22;20128;45.582;5.298;2023-08-31T04:39:59;17.90;72.50
33827;DHT22;20128;45.582;5.298;2023-08-31T04:42:24;17.90;73.00
33827;DHT22;20128;45.582;5.298;2023-08-31T04:44:50;18.00;72.90
33827;DHT22;20128;45.582;5.298;2023-08-31T04:47:16;18.10;73.00
33827;DHT22;20128;45.582;5.298;2023-08-31T04:49:42;18.10;72.90
33827;DHT22;20128;45.582;5.298;2023-08-31T04:52:08;18.30;72.90
33827;DHT22;20128;45.582;5.298;2023-08-31T04:54:33;18.40;72.60
33827;DHT22;20128;45.582;5.298;2023-08-31T04:56:59;18.60;72.20
33827;DHT22;20128;45.582;5.298;2023-08-31T04:59:25;18.60;71.80
33827;DHT22;20128;45.582;5.298;2023-08-31T05:01:50;18.50;71.60
33827;DHT22;20128;45.582;5.298;2023-08-31T05:04:16;18.30;71.50
33827;DHT22;20128;45.582;5.298;2023-08-31T05:06:41;18.20;72.00
33827;DHT22;20128;45.582;5.298;2023-08-31T05:09:07;18.20;71.80
33827;DHT22;20128;45.582;5.298;2023-08-31T05:11:33;18.10;71.70
33827;DHT22;20128;45.582;5.298;2023-08-31T05:13:59;18.10;71.90
33827;DHT22;20128;45.582;5.298;2023-08-31T05:16:24;18.10;71.90
33827;DHT22;20128;45.582;5.298;2023-08-31T05:18:50;17.90;71.80
33827;DHT22;20128;45.582;5.298;2023-08-31T05:21:16;17.70;72.50
33827;DHT22;20128;45.582;5.298;2023-08-31T05:23:41;17.70;72.80
33827;DHT22;20128;45.582;5.298;2023-08-31T05:26:07;17.70;72.60
33827;DHT22;20128;45.582;5.298;2023-08-31T05:28:33;17.70;72.60
33827;DHT22;20128;45.582;5.298;2023-08-31T05:31:01;17.70;72.50
33827;DHT22;20128;45.582;5.298;2023-08-31T05:33:26;17.50;72.80
33827;DHT22;20128;45.582;5.298;2023-08-31T05:35:54;17.30;73.70
33827;DHT22;20128;45.582;5.298;2023-08-31T05:38:20;17.40;74.20
33827;DHT22;20128;45.582;5.298;2023-08-31T05:40:45;17.50;74.00
33827;DHT22;20128;45.582;5.298;2023-08-31T05:43:15;17.80;73.90
33827;DHT22;20128;45.582;5.298;2023-08-31T05:45:41;17.90;73.30
33827;DHT22;20128;45.582;5.298;2023-08-31T05:48:08;18.00;73.20
33827;DHT22;20128;45.582;5.298;2023-08-31T05:50:34;18.20;72.60
33827;DHT22;20128;45.582;5.298;2023-08-31T05:53:02;18.40;72.10
33827;DHT22;20128;45.582;5.298;2023-08-31T05:55:28;18.40;71.80
33827;DHT22;20128;45.582;5.298;2023-08-31T05:57:54;18.50;71.70
33827;DHT22;20128;45.582;5.298;2023-08-31T06:00:19;18.50;71.40
33827;DHT22;20128;45.582;5.298;2023-08-31T06:02:45;18.50;71.20
33827;DHT22;20128;45.582;5.298;2023-08-31T06:05:11;18.60;71.30
33827;DHT22;20128;45.582;5.298;2023-08-31T06:07:42;18.70;71.20
33827;DHT22;20128;45.582;5.298;2023-08-31T06:10:08;18.70;71.00
33827;DHT22;20128;45.582;5.298;2023-08-31T06:12:34;18.70;70.80
33827;DHT22;20128;45.582;5.298;2023-08-31T06:14:59;18.70;70.80
33827;DHT22;20128;45.582;5.298;2023-08-31T06:17:26;18.80;70.80
33827;DHT22;20128;45.582;5.298;2023-08-31T06:19:51;18.80;70.70
33827;DHT22;20128;45.582;5.298;2023-08-31T06:22:17;18.90;70.80
33827;DHT22;20128;45.582;5.298;2023-08-31T06:24:43;18.90;70.80
33827;DHT22;20128;45.582;5.298;2023-08-31T06:27:11;19.00;70.70
33827;DHT22;20128;45.582;5.298;2023-08-31T06:29:38;19.00;70.50
33827;DHT22;20128;45.582;5.298;2023-08-31T06:32:03;19.00;70.50
33827;DHT22;20128;45.582;5.298;2023-08-31T06:34:29;19.00;70.50
33827;DHT22;20128;45.582;5.298;2023-08-31T06:36:56;18.90;70.60
33827;DHT22;20128;45.582;5.298;2023-08-31T06:39:23;18.70;70.70
33827;DHT22;20128;45.582;5.298;2023-08-31T06:41:49;18.70;71.20
33827;DHT22;20128;45.582;5.298;2023-08-31T06:44:15;18.60;71.40
33827;DHT22;20128;45.582;5.298;2023-08-31T06:46:42;18.60;71.70
33827;DHT22;20128;45.582;5.298;2023-08-31T06:49:08;18.50;72.10
33827;DHT22;20128;45.582;5.298;2023-08-31T06:51:34;18.40;72.20
33827;DHT22;20128;45.582;5.298;2023-08-31T06:54:00;18.40;73.30
33827;DHT22;20128;45.582;5.298;2023-08-31T06:56:35;18.40;72.80
33827;DHT22;20128;45.582;5.298;2023-08-31T06:59:01;18.50;72.90
33827;DHT22;20128;45.582;5.298;2023-08-31T07:01:28;18.40;72.70
33827;DHT22;20128;45.582;5.298;2023-08-31T07:03:55;18.30;73.10
33827;DHT22;20128;45.582;5.298;2023-08-31T07:06:21;18.20;73.50
33827;DHT22;20128;45.582;5.298;2023-08-31T07:08:47;18.20;73.90
33827;DHT22;20128;45.582;5.298;2023-08-31T07:11:13;18.40;73.80
33827;DHT22;20128;45.582;5.298;2023-08-31T07:13:40;18.50;73.60
33827;DHT22;20128;45.582;5.298;2023-08-31T07:16:06;18.60;73.30
33827;DHT22;20128;45.582;5.298;2023-08-31T07:18:31;18.70;73.10
33827;DHT22;20128;45.582;5.298;2023-08-31T07:20:57;18.80;72.50
33827;DHT22;20128;45.582;5.298;2023-08-31T07:23:23;18.90;72.30
33827;DHT22;20128;45.582;5.298;2023-08-31T07:25:49;19.00;72.30
33827;DHT22;20128;45.582;5.298;2023-08-31T07:28:15;19.20;72.10
33827;DHT22;20128;45.582;5.298;2023-08-31T07:30:40;19.30;71.00
33827;DHT22;20128;45.582;5.298;2023-08-31T07:33:06;19.40;70.60
33827;DHT22;20128;45.582;5.298;2023-08-31T07:35:32;19.50;69.90
33827;DHT22;20128;45.582;5.298;2023-08-31T07:37:58;19.60;70.00
33827;DHT22;20128;45.582;5.298;2023-08-31T07:40:23;19.60;69.50
33827;DHT22;20128;45.582;5.298;2023-08-31T07:42:50;19.70;69.30
33827;DHT22;20128;45.582;5.298;2023-08-31T07:45:17;19.80;69.00
33827;DHT22;20128;45.582;5.298;2023-08-31T07:47:43;19.90;68.90
33827;DHT22;20128;45.582;5.298;2023-08-31T07:50:09;19.90;68.50
33827;DHT22;20128;45.582;5.298;2023-08-31T07:52:34;19.90;68.60
33827;DHT22;20128;45.582;5.298;2023-08-31T07:55:00;19.90;69.00
33827;DHT22;20128;45.582;5.298;2023-08-31T07:57:26;19.90;68.70
33827;DHT22;20128;45.582;5.298;2023-08-31T07:59:52;20.00;68.50
33827;DHT22;20128;45.582;5.298;2023-08-31T08:02:17;20.20;68.10
33827;DHT22;20128;45.582;5.298;2023-08-31T08:04:45;20.30;67.20
33827;DHT22;20128;45.582;5.298;2023-08-31T08:07:11;20.40;66.80
33827;DHT22;20128;45.582;5.298;2023-08-31T08:09:36;20.60;65.10
33827;DHT22;20128;45.582;5.298;2023-08-31T08:12:02;20.60;65.00
33827;DHT22;20128;45.582;5.298;2023-08-31T08:14:28;20.70;65.20
33827;DHT22;20128;45.582;5.298;2023-08-31T08:16:54;20.80;64.40
33827;DHT22;20128;45.582;5.298;2023-08-31T08:19:23;20.80;63.30
33827;DHT22;20128;45.582;5.298;2023-08-31T08:21:50;20.90;63.00
33827;DHT22;20128;45.582;5.298;2023-08-31T08:24:16;21.00;63.20
33827;DHT22;20128;45.582;5.298;2023-08-31T08:26:42;21.10;63.70
33827;DHT22;20128;45.582;5.298;2023-08-31T08:29:07;21.20;63.70
33827;DHT22;20128;45.582;5.298;2023-08-31T08:31:33;21.30;61.60
33827;DHT22;20128;45.582;5.298;2023-08-31T08:33:58;21.40;60.80
33827;DHT22;20128;45.582;5.298;2023-08-31T08:36:24;21.50;61.40
33827;DHT22;20128;45.582;5.298;2023-08-31T08:38:49;21.60;60.50
33827;DHT22;20128;45.582;5.298;2023-08-31T08:41:17;21.70;60.90
33827;DHT22;20128;45.582;5.298;2023-08-31T08:43:48;21.90;59.00
33827;DHT22;20128;45.582;5.298;2023-08-31T08:46:16;21.90;58.40
33827;DHT22;20128;45.582;5.298;2023-08-31T08:48:42;22.00;57.80
33827;DHT22;20128;45.582;5.298;2023-08-31T08:51:10;22.00;57.40
33827;DHT22;20128;45.582;5.298;2023-08-31T08:53:37;22.10;57.30
33827;DHT22;20128;45.582;5.298;2023-08-31T08:56:04;22.20;57.40
33827;DHT22;20128;45.582;5.298;2023-08-31T08:58:30;22.30;57.70
33827;DHT22;20128;45.582;5.298;2023-08-31T09:00:55;22.40;56.90
33827;DHT22;20128;45.582;5.298;2023-08-31T09:03:24;22.50;57.00
33827;DHT22;20128;45.582;5.298;2023-08-31T09:05:50;22.60;57.00
33827;DHT22;20128;45.582;5.298;2023-08-31T09:08:26;22.70;56.90
33827;DHT22;20128;45.582;5.298;2023-08-31T09:10:55;22.70;56.80
33827;DHT22;20128;45.582;5.298;2023-08-31T09:13:29;22.80;56.50
33827;DHT22;20128;45.582;5.298;2023-08-31T09:15:55;23.00;56.50
33827;DHT22;20128;45.582;5.298;2023-08-31T09:18:25;23.00;56.20
33827;DHT22;20128;45.582;5.298;2023-08-31T09:20:51;23.10;55.80
33827;DHT22;20128;45.582;5.298;2023-08-31T09:23:17;23.10;55.00
33827;DHT22;20128;45.582;5.298;2023-08-31T09:25:48;23.20;55.70
33827;DHT22;20128;45.582;5.298;2023-08-31T09:28:15;23.30;55.90
33827;DHT22;20128;45.582;5.298;2023-08-31T09:30:41;23.40;53.80
33827;DHT22;20128;45.582;5.298;2023-08-31T09:33:17;23.50;54.00
33827;DHT22;20128;45.582;5.298;2023-08-31T09:35:51;23.60;54.40
33827;DHT22;20128;45.582;5.298;2023-08-31T09:38:17;23.70;53.70
33827;DHT22;20128;45.582;5.298;2023-08-31T09:40:43;23.80;52.70
33827;DHT22;20128;45.582;5.298;2023-08-31T09:43:08;23.80;52.90
33827;DHT22;20128;45.582;5.298;2023-08-31T09:45:34;23.90;53.10
33827;DHT22;20128;45.582;5.298;2023-08-31T09:48:02;24.00;52.50
33827;DHT22;20128;45.582;5.298;2023-08-31T09:50:33;24.20;52.90
33827;DHT22;20128;45.582;5.298;2023-08-31T09:53:03;24.30;52.20
33827;DHT22;20128;45.582;5.298;2023-08-31T09:55:30;24.30;52.00
33827;DHT22;20128;45.582;5.298;2023-08-31T09:58:00;24.50;51.80
33827;DHT22;20128;45.582;5.298;2023-08-31T10:00:29;24.60;51.30
33827;DHT22;20128;45.582;5.298;2023-08-31T10:03:00;24.70;50.10
33827;DHT22;20128;45.582;5.298;2023-08-31T10:05:27;24.70;50.80
33827;DHT22;20128;45.582;5.298;2023-08-31T10:07:54;24.50;50.70
33827;DHT22;20128;45.582;5.298;2023-08-31T10:10:20;24.40;51.40
33827;DHT22;20128;45.582;5.298;2023-08-31T10:12:51;24.20;51.80
33827;DHT22;20128;45.582;5.298;2023-08-31T10:15:18;24.10;52.20
33827;DHT22;20128;45.582;5.298;2023-08-31T10:17:44;24.10;52.30
33827;DHT22;20128;45.582;5.298;2023-08-31T10:20:13;24.10;52.30
33827;DHT22;20128;45.582;5.298;2023-08-31T10:22:39;24.10;52.50
33827;DHT22;20128;45.582;5.298;2023-08-31T10:25:06;24.10;52.20
33827;DHT22;20128;45.582;5.298;2023-08-31T10:27:45;24.20;52.00
33827;DHT22;20128;45.582;5.298;2023-08-31T10:38:26;24.00;51.90
33827;DHT22;20128;45.582;5.298;2023-08-31T10:43:53;24.00;52.40
33827;DHT22;20128;45.582;5.298;2023-08-31T10:46:33;24.10;51.60
33827;DHT22;20128;45.582;5.298;2023-08-31T10:51:42;24.50;51.70
33827;DHT22;20128;45.582;5.298;2023-08-31T10:54:11;24.80;51.50
33827;DHT22;20128;45.582;5.298;2023-08-31T10:59:24;25.10;49.60
33827;DHT22;20128;45.582;5.298;2023-08-31T11:04:22;25.20;50.10
33827;DHT22;20128;45.582;5.298;2023-08-31T11:06:49;25.30;49.60
33827;DHT22;20128;45.582;5.298;2023-08-31T11:09:21;25.40;49.60
33827;DHT22;20128;45.582;5.298;2023-08-31T11:11:47;25.40;49.60
33827;DHT22;20128;45.582;5.298;2023-08-31T11:14:14;25.40;49.80
33827;DHT22;20128;45.582;5.298;2023-08-31T11:16:41;25.30;49.30
33827;DHT22;20128;45.582;5.298;2023-08-31T11:19:08;25.30;49.10
33827;DHT22;20128;45.582;5.298;2023-08-31T11:21:36;25.30;49.40
33827;DHT22;20128;45.582;5.298;2023-08-31T11:24:02;25.30;48.80
33827;DHT22;20128;45.582;5.298;2023-08-31T11:26:31;25.20;49.10
33827;DHT22;20128;45.582;5.298;2023-08-31T11:28:57;25.20;48.70
33827;DHT22;20128;45.582;5.298;2023-08-31T11:31:26;25.10;49.20
33827;DHT22;20128;45.582;5.298;2023-08-31T11:33:53;25.20;48.70
33827;DHT22;20128;45.582;5.298;2023-08-31T11:36:19;25.20;49.00
33827;DHT22;20128;45.582;5.298;2023-08-31T11:38:47;25.30;49.10
33827;DHT22;20128;45.582;5.298;2023-08-31T11:41:13;25.40;48.80
33827;DHT22;20128;45.582;5.298;2023-08-31T11:43:39;25.60;48.50
33827;DHT22;20128;45.582;5.298;2023-08-31T11:46:05;25.50;48.50
33827;DHT22;20128;45.582;5.298;2023-08-31T11:48:32;25.40;48.30
33827;DHT22;20128;45.582;5.298;2023-08-31T11:50:58;25.20;48.70
33827;DHT22;20128;45.582;5.298;2023-08-31T11:53:24;25.10;48.80
33827;DHT22;20128;45.582;5.298;2023-08-31T11:55:52;25.10;48.80
33827;DHT22;20128;45.582;5.298;2023-08-31T11:58:19;25.10;49.10
33827;DHT22;20128;45.582;5.298;2023-08-31T12:00:54;25.10;49.20
33827;DHT22;20128;45.582;5.298;2023-08-31T12:03:19;25.20;48.50
33827;DHT22;20128;45.582;5.298;2023-08-31T12:05:51;25.30;48.00
33827;DHT22;20128;45.582;5.298;2023-08-31T12:08:24;25.30;48.60
33827;DHT22;20128;45.582;5.298;2023-08-31T12:10:50;25.40;48.80
33827;DHT22;20128;45.582;5.298;2023-08-31T12:13:16;25.40;48.80
33827;DHT22;20128;45.582;5.298;2023-08-31T12:15:42;25.50;48.90
33827;DHT22;20128;45.582;5.298;2023-08-31T12:18:11;25.50;48.70
33827;DHT22;20128;45.582;5.298;2023-08-31T12:20:48;25.50;48.70
33827;DHT22;20128;45.582;5.298;2023-08-31T12:23:16;25.40;48.30
33827;DHT22;20128;45.582;5.298;2023-08-31T12:25:52;25.40;48.10
33827;DHT22;20128;45.582;5.298;2023-08-31T12:28:19;25.40;48.00
33827;DHT22;20128;45.582;5.298;2023-08-31T12:30:54;25.40;47.80
33827;DHT22;20128;45.582;5.298;2023-08-31T12:33:22;25.50;48.20
33827;DHT22;20128;45.582;5.298;2023-08-31T12:35:48;25.50;48.20
33827;DHT22;20128;45.582;5.298;2023-08-31T12:38:14;25.50;48.20
33827;DHT22;20128;45.582;5.298;2023-08-31T12:40:39;25.50;47.90
33827;DHT22;20128;45.582;5.298;2023-08-31T12:43:06;25.50;48.10
33827;DHT22;20128;45.582;5.298;2023-08-31T12:45:32;25.40;47.90
33827;DHT22;20128;45.582;5.298;2023-08-31T12:47:59;25.50;48.30
33827;DHT22;20128;45.582;5.298;2023-08-31T12:50:24;25.50;48.30
33827;DHT22;20128;45.582;5.298;2023-08-31T12:52:50;25.50;48.90
33827;DHT22;20128;45.582;5.298;2023-08-31T12:55:16;25.50;48.40
33827;DHT22;20128;45.582;5.298;2023-08-31T12:57:42;25.40;48.90
33827;DHT22;20128;45.582;5.298;2023-08-31T13:00:09;25.50;48.90
33827;DHT22;20128;45.582;5.298;2023-08-31T13:02:39;25.60;47.80
33827;DHT22;20128;45.582;5.298;2023-08-31T13:05:06;25.60;47.20
33827;DHT22;20128;45.582;5.298;2023-08-31T13:07:32;25.70;46.80
33827;DHT22;20128;45.582;5.298;2023-08-31T13:10:00;25.80;46.30
33827;DHT22;20128;45.582;5.298;2023-08-31T13:12:26;25.90;46.30
33827;DHT22;20128;45.582;5.298;2023-08-31T13:14:51;26.00;46.10
33827;DHT22;20128;45.582;5.298;2023-08-31T13:17:17;26.00;46.30
33827;DHT22;20128;45.582;5.298;2023-08-31T13:19:43;26.10;45.50
33827;DHT22;20128;45.582;5.298;2023-08-31T13:22:08;26.10;46.10
33827;DHT22;20128;45.582;5.298;2023-08-31T13:24:40;26.00;46.00
33827;DHT22;20128;45.582;5.298;2023-08-31T13:27:06;25.90;46.40
33827;DHT22;20128;45.582;5.298;2023-08-31T13:29:32;25.80;46.50
33827;DHT22;20128;45.582;5.298;2023-08-31T13:31:57;25.70;46.60
33827;DHT22;20128;45.582;5.298;2023-08-31T13:34:23;25.60;46.80
33827;DHT22;20128;45.582;5.298;2023-08-31T13:36:49;25.80;46.90
33827;DHT22;20128;45.582;5.298;2023-08-31T13:39:14;25.80;46.00
33827;DHT22;20128;45.582;5.298;2023-08-31T13:41:40;25.90;46.00
33827;DHT22;20128;45.582;5.298;2023-08-31T13:44:06;26.00;45.30
33827;DHT22;20128;45.582;5.298;2023-08-31T13:46:31;26.20;45.10
33827;DHT22;20128;45.582;5.298;2023-08-31T13:48:57;26.20;44.80
33827;DHT22;20128;45.582;5.298;2023-08-31T13:51:23;26.40;45.00
33827;DHT22;20128;45.582;5.298;2023-08-31T13:53:48;26.50;44.70
33827;DHT22;20128;45.582;5.298;2023-08-31T13:56:14;26.70;44.90
33827;DHT22;20128;45.582;5.298;2023-08-31T13:58:39;26.90;44.90
33827;DHT22;20128;45.582;5.298;2023-08-31T14:01:06;27.00;44.10
33827;DHT22;20128;45.582;5.298;2023-08-31T14:03:32;27.20;43.90
33827;DHT22;20128;45.582;5.298;2023-08-31T14:05:57;27.30;43.70
33827;DHT22;20128;45.582;5.298;2023-08-31T14:08:23;27.30;43.90
33827;DHT22;20128;45.582;5.298;2023-08-31T14:10:48;27.50;43.10
33827;DHT22;20128;45.582;5.298;2023-08-31T14:13:14;27.60;42.50
33827;DHT22;20128;45.582;5.298;2023-08-31T14:15:45;27.70;42.10
33827;DHT22;20128;45.582;5.298;2023-08-31T14:18:12;27.80;41.60
33827;DHT22;20128;45.582;5.298;2023-08-31T14:20:38;27.90;40.90
33827;DHT22;20128;45.582;5.298;2023-08-31T14:23:04;28.10;41.40
33827;DHT22;20128;45.582;5.298;2023-08-31T14:25:35;28.10;41.50
33827;DHT22;20128;45.582;5.298;2023-08-31T14:28:00;28.30;41.60
33827;DHT22;20128;45.582;5.298;2023-08-31T14:30:26;28.40;41.30
33827;DHT22;20128;45.582;5.298;2023-08-31T14:32:51;28.40;41.10
33827;DHT22;20128;45.582;5.298;2023-08-31T14:35:17;28.40;40.90
33827;DHT22;20128;45.582;5.298;2023-08-31T14:37:43;28.40;40.80
33827;DHT22;20128;45.582;5.298;2023-08-31T14:40:09;28.40;41.30
33827;DHT22;20128;45.582;5.298;2023-08-31T14:42:36;28.60;40.70
33827;DHT22;20128;45.582;5.298;2023-08-31T14:45:02;28.70;40.30
33827;DHT22;20128;45.582;5.298;2023-08-31T14:47:28;28.80;40.70
33827;DHT22;20128;45.582;5.298;2023-08-31T14:49:55;28.80;40.20
33827;DHT22;20128;45.582;5.298;2023-08-31T14:52:20;28.90;39.80
33827;DHT22;20128;45.582;5.298;2023-08-31T14:54:46;28.80;39.70
33827;DHT22;20128;45.582;5.298;2023-08-31T14:57:12;28.80;40.90
33827;DHT22;20128;45.582;5.298;2023-08-31T14:59:37;28.80;40.30
33827;DHT22;20128;45.582;5.298;2023-08-31T15:02:03;28.70;39.80
33827;DHT22;20128;45.582;5.298;2023-08-31T15:04:31;28.70;40.50
33827;DHT22;20128;45.582;5.298;2023-08-31T15:06:57;28.60;41.60
33827;DHT22;20128;45.582;5.298;2023-08-31T15:09:23;28.50;41.20
33827;DHT22;20128;45.582;5.298;2023-08-31T15:11:49;28.30;40.40
33827;DHT22;20128;45.582;5.298;2023-08-31T15:14:15;28.10;40.60
33827;DHT22;20128;45.582;5.298;2023-08-31T15:16:40;28.10;40.40
33827;DHT22;20128;45.582;5.298;2023-08-31T15:19:07;28.10;41.50
33827;DHT22;20128;45.582;5.298;2023-08-31T15:21:33;28.00;41.10
33827;DHT22;20128;45.582;5.298;2023-08-31T15:23:59;27.80;41.70
33827;DHT22;20128;45.582;5.298;2023-08-31T15:26:24;27.70;42.00
33827;DHT22;20128;45.582;5.298;2023-08-31T15:28:50;27.70;41.80
33827;DHT22;20128;45.582;5.298;2023-08-31T15:31:16;27.80;41.80
33827;DHT22;20128;45.582;5.298;2023-08-31T15:33:42;27.80;41.30
33827;DHT22;20128;45.582;5.298;2023-08-31T15:36:10;27.60;41.00
33827;DHT22;20128;45.582;5.298;2023-08-31T15:38:36;27.70;40.90
33827;DHT22;20128;45.582;5.298;2023-08-31T15:41:05;27.80;40.80
33827;DHT22;20128;45.582;5.298;2023-08-31T15:43:33;27.80;41.30
33827;DHT22;20128;45.582;5.298;2023-08-31T15:46:00;27.80;41.90
33827;DHT22;20128;45.582;5.298;2023-08-31T15:48:26;27.80;40.40
33827;DHT22;20128;45.582;5.298;2023-08-31T15:50:57;27.80;40.50
33827;DHT22;20128;45.582;5.298;2023-08-31T15:53:24;27.90;40.30
33827;DHT22;20128;45.582;5.298;2023-08-31T15:55:51;27.90;40.10